Time,TemperatureF,DewpointF,PressureIn,WindDirection,WindDirectionDegrees,WindSpeedMPH,WindSpeedGustMPH,Humidity,HourlyPrecipIn,Conditions,Clouds,dailyrainin,SoftwareType,DateUTC
2013-07-01 00:01:00,71.7,71.7,29.97,WSW,249,0.0,0.0,100,0.00,,BKN021,0.01,VWS V14.01,2013-07-01 04:01:00,
2013-07-01 00:02:00,71.9,71.9,29.97,WSW,249,0.0,0.0,100,0.00,,BKN021,0.00,VWS V14.01,2013-07-01 04:02:00,
2013-07-01 00:03:00,71.7,71.7,29.97,WSW,249,0.0,0.0,100,0.00,,BKN021,0.00,VWS V14.01,2013-07-01 04:03:00,
2013-07-01 00:08:00,71.8,71.8,29.96,WSW,249,0.0,0.0,100,0.00,,BKN021,0.00,VWS V14.01,2013-07-01 04:08:00,
2013-07-01 00:13:00,71.7,71.7,29.96,WSW,249,0.0,0.0,100,0.00,,BKN021,0.00,VWS V14.01,2013-07-01 04:13:00,
2013-07-01 00:18:00,71.8,71.8,29.97,WSW,249,0.0,0.0,100,0.00,,BKN021,0.00,VWS V14.01,2013-07-01 04:18:00,
2013-07-01 00:23:00,71.9,71.9,29.97,WSW,249,0.0,0.0,100,0.00,,BKN021,0.00,VWS V14.01,2013-07-01 04:23:00,
2013-07-01 00:28:00,71.8,71.8,29.96,WSW,249,0.0,0.0,100,0.00,,BKN021,0.00,VWS V14.01,2013-07-01 04:28:00,
2013-07-01 00:33:00,71.7,71.7,29.95,WSW,249,0.0,0.0,100,0.00,,BKN021,0.00,VWS V14.01,2013-07-01 04:33:00,
2013-07-01 00:38:00,71.7,71.7,29.95,WSW,249,0.0,0.0,100,0.00,,BKN021,0.00,VWS V14.01,2013-07-01 04:38:00,
2013-07-01 00:43:00,71.8,71.8,29.97,WSW,249,0.0,0.0,100,0.00,,BKN021,0.00,VWS V14.01,2013-07-01 04:43:00,
2013-07-01 00:49:00,71.8,71.8,29.97,WSW,249,0.0,0.0,100,0.00,,BKN021,0.00,VWS V14.01,2013-07-01 04:49:00,
2013-07-01 00:54:00,71.7,71.7,29.96,WSW,249,0.0,0.0,100,0.00,,BKN021,0.00,VWS V14.01,2013-07-01 04:54:00,
2013-07-01 00:59:00,71.7,71.7,29.96,WSW,249,0.0,0.0,100,0.00,,BKN021,0.00,VWS V14.01,2013-07-01 04:59:00,
2013-07-01 01:04:00,71.8,71.8,29.97,WSW,249,0.0,1.4,100,0.00,,BKN021,0.00,VWS V14.01,2013-07-01 05:04:00,
2013-07-01 01:09:00,71.7,71.7,29.97,WSW,249,0.0,1.4,100,0.00,,BKN021,0.00,VWS V14.01,2013-07-01 05:09:00,
2013-07-01 01:14:00,71.7,71.7,29.97,WSW,249,0.0,0.0,100,0.00,,BKN021,0.00,VWS V14.01,2013-07-01 05:14:00,
2013-07-01 01:19:00,71.8,71.8,29.98,WSW,249,0.0,0.0,100,0.00,,BKN021,0.00,VWS V14.01,2013-07-01 05:19:00,
2013-07-01 01:24:00,71.8,71.8,29.98,WSW,249,0.0,0.0,100,0.00,,BKN021,0.00,VWS V14.01,2013-07-01 05:24:00,
2013-07-01 01:30:00,71.7,71.7,29.97,WSW,249,0.0,0.0,100,0.00,,BKN021,0.00,VWS V14.01,2013-07-01 05:30:00,
2013-07-01 01:35:00,71.7,71.7,29.97,WSW,249,0.0,0.0,100,0.00,,BKN021,0.00,VWS V14.01,2013-07-01 05:35:00,
2013-07-01 01:40:00,71.7,71.7,29.97,WSW,249,0.0,0.0,100,0.00,,BKN021,0.00,VWS V14.01,2013-07-01 05:40:00,
2013-07-01 01:45:00,71.8,71.8,29.97,WSW,249,0.0,0.0,100,0.00,,BKN021,0.00,VWS V14.01,2013-07-01 05:45:00,
2013-07-01 01:50:00,71.7,71.7,29.96,WSW,249,0.0,0.0,100,0.00,,BKN021,0.00,VWS V14.01,2013-07-01 05:50:00,
2013-07-01 01:55:00,71.7,71.7,29.96,WSW,249,0.0,0.0,100,0.00,,BKN021,0.00,VWS V14.01,2013-07-01 05:55:00,
2013-07-01 02:00:00,71.7,71.7,29.96,WSW,249,0.0,0.0,100,0.00,,BKN021,0.00,VWS V14.01,2013-07-01 06:00:00,
2013-07-01 02:05:00,71.7,71.7,29.97,WSW,249,0.0,0.0,100,0.00,,BKN021,0.00,VWS V14.01,2013-07-01 06:05:00,
2013-07-01 02:10:00,71.8,71.8,29.97,WSW,249,0.0,0.0,100,0.00,,BKN021,0.00,VWS V14.01,2013-07-01 06:10:00,
2013-07-01 02:15:00,71.7,71.7,29.96,WSW,249,0.0,0.0,100,0.00,,BKN021,0.00,VWS V14.01,2013-07-01 06:15:00,
2013-07-01 02:21:00,71.7,71.7,29.95,WSW,249,0.0,0.0,100,0.00,,BKN021,0.00,VWS V14.01,2013-07-01 06:21:00,
2013-07-01 02:26:00,71.7,71.7,29.95,WSW,249,0.0,0.0,100,0.00,,BKN021,0.00,VWS V14.01,2013-07-01 06:26:00,
2013-07-01 02:31:00,71.7,71.7,29.96,WSW,249,0.0,0.0,100,0.00,,BKN021,0.00,VWS V14.01,2013-07-01 06:31:00,
2013-07-01 02:36:00,71.7,71.7,29.96,WSW,249,0.0,0.0,100,0.00,,BKN021,0.00,VWS V14.01,2013-07-01 06:36:00,
2013-07-01 02:41:00,71.6,71.6,29.95,WSW,249,0.0,0.0,100,0.00,,BKN021,0.00,VWS V14.01,2013-07-01 06:41:00,
2013-07-01 02:46:00,71.6,71.6,29.95,WSW,249,0.0,0.0,100,0.00,,BKN021,0.00,VWS V14.01,2013-07-01 06:46:00,
2013-07-01 02:51:00,71.6,71.6,29.96,WSW,249,0.0,0.0,100,0.00,,BKN021,0.00,VWS V14.01,2013-07-01 06:51:00,
2013-07-01 02:56:00,71.7,71.7,29.96,WSW,249,0.0,0.0,100,0.00,,BKN021,0.00,VWS V14.01,2013-07-01 06:56:00,
2013-07-01 03:01:00,71.8,71.8,29.96,WSW,249,0.0,0.0,100,0.00,,BKN021,0.00,VWS V14.01,2013-07-01 07:01:00,
2013-07-01 03:06:00,71.6,71.6,29.95,WSW,249,0.0,0.0,100,0.00,,BKN021,0.00,VWS V14.01,2013-07-01 07:06:00,
2013-07-01 03:11:00,71.6,71.6,29.95,WSW,249,0.0,0.0,100,0.00,,BKN021,0.00,VWS V14.01,2013-07-01 07:11:00,
2013-07-01 03:16:00,71.6,71.6,29.96,WSW,249,0.0,0.0,100,0.00,,BKN021,0.00,VWS V14.01,2013-07-01 07:16:00,
2013-07-01 03:21:00,71.8,71.8,29.96,WSW,249,0.0,0.0,100,0.00,,BKN021,0.00,VWS V14.01,2013-07-01 07:21:00,
2013-07-01 03:27:00,71.8,71.8,29.96,WSW,249,0.0,0.0,100,0.00,,BKN021,0.00,VWS V14.01,2013-07-01 07:27:00,
2013-07-01 03:32:00,71.8,71.8,29.95,WSW,249,0.0,0.0,100,0.00,,BKN021,0.00,VWS V14.01,2013-07-01 07:32:00,
2013-07-01 03:37:00,71.8,71.8,29.95,WSW,249,0.0,0.0,100,0.00,,BKN021,0.00,VWS V14.01,2013-07-01 07:37:00,
2013-07-01 03:42:00,71.8,71.8,29.96,WSW,249,0.0,0.0,100,0.00,,BKN021,0.00,VWS V14.01,2013-07-01 07:42:00,
2013-07-01 03:47:00,71.9,71.9,29.95,WSW,249,0.0,0.0,100,0.00,,BKN021,0.00,VWS V14.01,2013-07-01 07:47:00,
2013-07-01 03:52:00,71.8,71.8,29.95,WSW,249,0.0,0.0,100,0.00,,BKN021,0.00,VWS V14.01,2013-07-01 07:52:00,
2013-07-01 03:57:00,71.7,71.7,29.95,WSW,249,0.0,0.0,100,0.00,,BKN021,0.00,VWS V14.01,2013-07-01 07:57:00,
2013-07-01 04:02:00,71.7,71.7,29.95,WSW,249,0.0,0.0,100,0.00,,BKN021,0.00,VWS V14.01,2013-07-01 08:02:00,
2013-07-01 04:07:00,71.7,71.7,29.95,WSW,249,0.0,0.0,100,0.00,,BKN021,0.00,VWS V14.01,2013-07-01 08:07:00,
2013-07-01 04:13:00,71.6,71.6,29.95,WSW,249,0.0,0.0,100,0.00,,BKN021,0.00,VWS V14.01,2013-07-01 08:13:00,
2013-07-01 04:18:00,71.6,71.6,29.95,WSW,249,0.0,0.0,100,0.00,,BKN021,0.00,VWS V14.01,2013-07-01 08:18:00,
2013-07-01 04:23:00,71.5,71.5,29.95,WSW,249,0.0,0.0,100,0.00,,BKN021,0.00,VWS V14.01,2013-07-01 08:23:00,
2013-07-01 04:28:00,71.6,71.6,29.96,WSW,249,0.0,0.0,100,0.00,,BKN021,0.00,VWS V14.01,2013-07-01 08:28:00,
2013-07-01 04:33:00,71.6,71.6,29.96,WSW,249,0.0,0.0,100,0.00,,BKN021,0.00,VWS V14.01,2013-07-01 08:33:00,
2013-07-01 04:38:00,71.5,71.5,29.95,WSW,249,0.0,0.0,100,0.00,,BKN021,0.00,VWS V14.01,2013-07-01 08:38:00,
2013-07-01 04:43:00,71.5,71.5,29.95,WSW,249,0.0,0.0,100,0.00,,BKN021,0.00,VWS V14.01,2013-07-01 08:43:00,
2013-07-01 04:48:00,71.5,71.5,29.96,WSW,249,0.0,0.0,100,0.00,,BKN021,0.00,VWS V14.01,2013-07-01 08:48:00,
2013-07-01 04:53:00,71.5,71.5,29.97,WSW,249,0.0,0.0,100,0.00,,BKN021,0.00,VWS V14.01,2013-07-01 08:53:00,
2013-07-01 04:59:00,71.5,71.5,29.97,WSW,249,0.0,0.0,100,0.00,,BKN021,0.00,VWS V14.01,2013-07-01 08:59:00,
2013-07-01 05:04:00,71.5,71.5,29.96,WSW,249,0.0,0.0,100,0.00,,BKN021,0.00,VWS V14.01,2013-07-01 09:04:00,
2013-07-01 05:09:00,71.4,71.4,29.96,WSW,249,0.0,0.0,100,0.00,,BKN021,0.00,VWS V14.01,2013-07-01 09:09:00,
2013-07-01 05:14:00,71.5,71.5,29.97,WSW,249,0.0,0.0,100,0.00,,BKN021,0.00,VWS V14.01,2013-07-01 09:14:00,
2013-07-01 05:19:00,71.5,71.5,29.97,WSW,249,0.0,0.0,100,0.00,,BKN021,0.00,VWS V14.01,2013-07-01 09:19:00,
2013-07-01 05:24:00,71.5,71.5,29.97,WSW,249,0.0,0.0,100,0.00,,BKN021,0.00,VWS V14.01,2013-07-01 09:24:00,
2013-07-01 05:29:00,71.5,71.5,29.96,WSW,249,0.0,0.0,100,0.00,,BKN021,0.00,VWS V14.01,2013-07-01 09:29:00,
2013-07-01 05:34:00,71.5,71.5,29.97,WSW,249,0.0,0.0,100,0.00,,BKN021,0.00,VWS V14.01,2013-07-01 09:34:00,
2013-07-01 05:39:00,71.5,71.5,29.98,WSW,249,0.0,0.0,100,0.00,,BKN021,0.00,VWS V14.01,2013-07-01 09:39:00,
2013-07-01 05:45:00,71.5,71.5,29.98,WSW,249,0.0,0.0,100,0.00,,BKN021,0.00,VWS V14.01,2013-07-01 09:45:00,
2013-07-01 05:50:00,71.5,71.5,29.97,WSW,249,0.0,0.0,100,0.00,,BKN021,0.00,VWS V14.01,2013-07-01 09:50:00,
2013-07-01 05:55:00,71.5,71.5,29.97,WSW,249,0.0,0.0,100,0.00,,BKN021,0.00,VWS V14.01,2013-07-01 09:55:00,
2013-07-01 06:00:00,71.5,71.5,29.98,WSW,249,0.0,0.0,100,0.00,,BKN021,0.00,VWS V14.01,2013-07-01 10:00:00,
2013-07-01 06:05:00,71.5,71.5,29.99,WSW,249,0.0,0.0,100,0.00,,BKN021,0.00,VWS V14.01,2013-07-01 10:05:00,
2013-07-01 06:10:00,71.5,71.5,29.98,WSW,249,0.0,0.0,100,0.00,,BKN021,0.00,VWS V14.01,2013-07-01 10:10:00,
2013-07-01 06:15:00,71.5,71.5,29.97,WSW,249,0.0,0.0,100,0.00,,BKN021,0.00,VWS V14.01,2013-07-01 10:15:00,
2013-07-01 06:20:00,71.5,71.5,29.98,WSW,249,0.0,0.0,100,0.00,,BKN021,0.00,VWS V14.01,2013-07-01 10:20:00,
2013-07-01 06:25:00,71.6,71.6,29.98,WSW,249,0.0,0.0,100,0.00,,BKN021,0.00,VWS V14.01,2013-07-01 10:25:00,
2013-07-01 06:31:00,71.6,71.6,29.99,WSW,249,0.0,0.0,100,0.00,,BKN021,0.00,VWS V14.01,2013-07-01 10:31:00,
2013-07-01 06:36:00,71.6,71.6,29.99,WSW,249,0.0,0.0,100,0.00,,BKN021,0.00,VWS V14.01,2013-07-01 10:36:00,
2013-07-01 06:41:00,71.5,71.5,29.99,WSW,249,0.0,0.0,100,0.00,,BKN021,0.00,VWS V14.01,2013-07-01 10:41:00,
2013-07-01 06:46:00,71.6,71.6,29.99,WSW,249,0.0,0.0,100,0.00,,BKN021,0.00,VWS V14.01,2013-07-01 10:46:00,
2013-07-01 06:51:00,71.7,71.7,29.99,WSW,249,0.0,0.0,100,0.00,,BKN021,0.00,VWS V14.01,2013-07-01 10:51:00,
2013-07-01 06:56:00,71.7,71.7,29.99,WSW,249,0.0,0.0,100,0.00,,BKN021,0.00,VWS V14.01,2013-07-01 10:56:00,
2013-07-01 07:01:00,71.7,71.7,29.98,WSW,249,0.0,0.0,100,0.00,,BKN021,0.00,VWS V14.01,2013-07-01 11:01:00,
2013-07-01 07:06:00,71.8,71.8,29.98,WSW,249,0.0,0.0,100,0.00,,,0.00,VWS V14.01,2013-07-01 11:06:00,
2013-07-01 07:11:00,71.8,71.8,29.99,WSW,249,0.0,0.0,100,0.00,,,0.00,VWS V14.01,2013-07-01 11:11:00,
2013-07-01 07:16:00,71.9,71.9,30.00,WSW,249,0.0,0.0,100,0.00,,,0.00,VWS V14.01,2013-07-01 11:16:00,
2013-07-01 07:22:00,71.9,71.9,30.00,WSW,249,0.0,0.0,100,0.00,,,0.00,VWS V14.01,2013-07-01 11:22:00,
2013-07-01 07:27:00,71.9,71.9,29.98,WSW,249,0.0,0.0,100,0.00,,,0.00,VWS V14.01,2013-07-01 11:27:00,
2013-07-01 07:32:00,71.9,71.9,29.99,WSW,249,0.0,0.0,100,0.00,,,0.00,VWS V14.01,2013-07-01 11:32:00,
2013-07-01 07:37:00,72.1,72.1,29.99,WSW,249,0.0,0.0,100,0.00,,,0.00,VWS V14.01,2013-07-01 11:37:00,
2013-07-01 07:42:00,72.1,72.1,29.99,WSW,249,0.0,0.0,100,0.00,,,0.00,VWS V14.01,2013-07-01 11:42:00,
2013-07-01 07:47:00,72.0,72.0,29.99,WSW,249,0.0,0.0,100,0.00,,,0.00,VWS V14.01,2013-07-01 11:47:00,
2013-07-01 07:52:00,72.0,72.0,29.98,WSW,249,0.0,0.0,100,0.00,,,0.00,VWS V14.01,2013-07-01 11:52:00,
2013-07-01 07:57:00,72.0,72.0,29.99,WSW,249,0.0,0.0,100,0.00,,,0.00,VWS V14.01,2013-07-01 11:57:00,
2013-07-01 08:02:00,72.1,72.1,30.00,WSW,249,0.0,0.0,100,0.00,,,0.00,VWS V14.01,2013-07-01 12:02:00,
2013-07-01 08:07:00,72.2,72.2,30.00,WSW,249,0.0,0.0,100,0.00,,,0.00,VWS V14.01,2013-07-01 12:07:00,
2013-07-01 08:12:00,72.1,72.1,30.00,WSW,249,0.0,0.0,100,0.00,,,0.00,VWS V14.01,2013-07-01 12:12:00,
2013-07-01 08:18:00,72.1,72.1,29.99,WSW,249,0.0,0.0,100,0.00,,,0.00,VWS V14.01,2013-07-01 12:18:00,
2013-07-01 08:23:00,72.2,72.2,30.00,WSW,249,0.0,0.0,100,0.00,,,0.00,VWS V14.01,2013-07-01 12:23:00,
2013-07-01 08:28:00,72.4,72.4,30.00,WSW,249,0.0,0.0,100,0.00,,,0.00,VWS V14.01,2013-07-01 12:28:00,
2013-07-01 08:33:00,72.5,72.5,30.00,WSW,249,0.0,0.0,100,0.00,,,0.00,VWS V14.01,2013-07-01 12:33:00,
2013-07-01 08:38:00,72.6,72.6,30.00,WSW,249,0.0,0.0,100,0.00,,,0.00,VWS V14.01,2013-07-01 12:38:00,
2013-07-01 08:43:00,72.6,72.6,30.00,WSW,249,0.0,0.0,100,0.00,,,0.00,VWS V14.01,2013-07-01 12:43:00,
2013-07-01 08:48:00,72.6,72.6,30.00,WSW,249,0.0,0.0,100,0.00,,,0.00,VWS V14.01,2013-07-01 12:48:00,
2013-07-01 08:53:00,72.8,72.8,30.01,WSW,249,0.0,0.0,100,0.00,,,0.00,VWS V14.01,2013-07-01 12:53:00,
2013-07-01 08:58:00,72.7,72.7,30.01,WSW,249,0.0,0.0,100,0.00,,,0.00,VWS V14.01,2013-07-01 12:58:00,
2013-07-01 09:03:00,72.7,72.7,30.00,WSW,249,0.0,0.0,100,0.00,,,0.00,VWS V14.01,2013-07-01 13:03:00,
2013-07-01 09:08:00,72.6,72.6,30.00,WSW,249,0.0,0.0,100,0.00,,,0.00,VWS V14.01,2013-07-01 13:08:00,
2013-07-01 09:13:00,72.8,72.8,30.01,WSW,249,0.0,0.0,100,0.00,,,0.00,VWS V14.01,2013-07-01 13:13:00,
2013-07-01 09:18:00,72.9,72.9,30.01,WSW,249,0.0,0.0,100,0.00,,,0.00,VWS V14.01,2013-07-01 13:18:00,
2013-07-01 09:24:00,73.0,73.0,30.01,WSW,249,0.0,0.0,100,0.00,,,0.00,VWS V14.01,2013-07-01 13:24:00,
2013-07-01 09:29:00,73.1,73.1,30.00,WSW,249,0.0,0.0,100,0.00,,,0.00,VWS V14.01,2013-07-01 13:29:00,
2013-07-01 09:34:00,73.1,73.1,30.01,SSW,212,0.0,4.2,100,0.00,,,0.00,VWS V14.01,2013-07-01 13:34:00,
2013-07-01 09:39:00,73.2,73.2,30.00,SSW,212,0.0,4.2,100,0.00,,,0.00,VWS V14.01,2013-07-01 13:39:00,
2013-07-01 09:44:00,73.2,73.2,30.00,SSW,212,0.0,0.0,100,0.00,,,0.00,VWS V14.01,2013-07-01 13:44:00,
2013-07-01 09:49:00,73.5,73.5,30.00,SSW,212,0.0,0.0,100,0.00,,,0.00,VWS V14.01,2013-07-01 13:49:00,
2013-07-01 09:54:00,73.6,73.6,30.00,SSW,212,0.0,0.0,100,0.00,,,0.00,VWS V14.01,2013-07-01 13:54:00,
2013-07-01 09:59:00,73.8,73.8,30.00,SSW,212,0.0,0.0,100,0.00,,,0.00,VWS V14.01,2013-07-01 13:59:00,
2013-07-01 10:04:00,73.9,73.9,30.00,SSW,212,0.0,0.0,100,0.00,,OVC006,0.00,VWS V14.01,2013-07-01 14:04:00,
2013-07-01 10:09:00,73.9,73.9,30.00,SSW,212,0.0,0.0,100,0.00,,OVC006,0.00,VWS V14.01,2013-07-01 14:09:00,
2013-07-01 10:15:00,74.3,74.3,30.00,SSW,212,0.0,0.0,100,0.00,,OVC006,0.00,VWS V14.01,2013-07-01 14:15:00,
2013-07-01 10:20:00,74.4,74.4,30.01,SSW,212,0.0,0.0,100,0.00,,OVC006,0.00,VWS V14.01,2013-07-01 14:20:00,
2013-07-01 10:25:00,74.3,74.3,30.01,SSW,212,0.0,0.0,100,0.00,,OVC006,0.00,VWS V14.01,2013-07-01 14:25:00,
2013-07-01 10:30:00,74.2,74.2,30.00,SSW,212,0.0,0.0,100,0.00,,OVC006,0.00,VWS V14.01,2013-07-01 14:30:00,
2013-07-01 10:35:00,74.2,74.2,30.01,SSW,212,0.0,0.0,100,0.00,,OVC006,0.00,VWS V14.01,2013-07-01 14:35:00,
2013-07-01 10:40:00,74.2,74.2,30.01,SSW,212,0.0,0.0,100,0.00,,OVC006,0.00,VWS V14.01,2013-07-01 14:40:00,
2013-07-01 10:45:00,74.2,74.2,30.00,SSW,212,0.0,0.0,100,0.02,,OVC006,0.02,VWS V14.01,2013-07-01 14:45:00,
2013-07-01 10:50:00,73.8,73.8,29.99,SSW,212,0.0,0.0,100,0.04,,OVC006,0.04,VWS V14.01,2013-07-01 14:50:00,
2013-07-01 10:55:00,73.7,73.7,29.98,SSW,212,0.0,0.0,100,0.11,,OVC006,0.11,VWS V14.01,2013-07-01 14:55:00,
2013-07-01 11:00:00,73.5,73.5,29.99,SSW,212,0.0,0.0,100,0.17,,OVC006,0.17,VWS V14.01,2013-07-01 15:00:00,
2013-07-01 11:05:00,73.5,73.5,29.98,SSW,212,0.0,0.0,100,0.21,,OVC006,0.21,VWS V14.01,2013-07-01 15:05:00,
2013-07-01 11:11:00,73.3,73.3,29.97,SSW,212,0.0,0.0,100,0.24,,OVC006,0.24,VWS V14.01,2013-07-01 15:11:00,
2013-07-01 11:16:00,73.2,73.2,29.97,SSW,212,0.0,0.0,100,0.26,,OVC006,0.26,VWS V14.01,2013-07-01 15:16:00,
2013-07-01 11:21:00,73.2,73.2,29.97,SSW,212,0.0,3.4,100,0.50,,OVC006,0.50,VWS V14.01,2013-07-01 15:21:00,
2013-07-01 11:26:00,72.9,72.9,29.97,SW,221,0.0,9.5,100,0.99,,OVC006,0.99,VWS V14.01,2013-07-01 15:26:00,
2013-07-01 11:31:00,73.0,73.0,29.98,ENE,73,0.0,9.5,100,1.07,,OVC006,1.07,VWS V14.01,2013-07-01 15:31:00,
2013-07-01 11:36:00,72.9,72.9,30.00,ENE,73,0.0,3.3,100,1.10,,OVC006,1.10,VWS V14.01,2013-07-01 15:36:00,
2013-07-01 11:41:00,72.8,72.8,30.01,ENE,73,0.0,3.3,100,1.14,,OVC006,1.14,VWS V14.01,2013-07-01 15:41:00,
2013-07-01 11:46:00,72.9,72.9,30.02,ENE,73,0.0,0.0,100,1.16,,OVC006,1.16,VWS V14.01,2013-07-01 15:46:00,
2013-07-01 11:51:00,72.8,72.8,30.01,ENE,73,0.0,0.0,100,1.32,,OVC006,1.32,VWS V14.01,2013-07-01 15:51:00,
2013-07-01 11:56:00,72.5,72.5,30.02,ENE,73,0.0,0.0,100,1.40,,OVC006,1.45,VWS V14.01,2013-07-01 15:56:00,
2013-07-01 11:58:00,72.3,72.3,30.01,ENE,73,0.0,0.0,100,1.45,,OVC006,1.50,VWS V14.01,2013-07-01 15:58:00,
2013-07-01 12:03:00,72.1,72.1,30.01,ENE,73,0.0,0.0,100,1.35,,-RA,1.53,VWS V14.01,2013-07-01 16:03:00,
2013-07-01 12:08:00,72.2,72.2,30.02,ENE,73,0.0,0.0,100,1.36,,-RA,1.54,VWS V14.01,2013-07-01 16:08:00,
2013-07-01 12:14:00,72.1,72.1,30.02,ENE,73,0.0,0.0,100,1.31,,-RA,1.55,VWS V14.01,2013-07-01 16:14:00,
2013-07-01 12:19:00,72.1,72.1,30.01,ENE,73,0.0,0.0,100,1.31,,-RA,1.55,VWS V14.01,2013-07-01 16:19:00,
2013-07-01 12:24:00,72.3,72.3,30.02,ENE,73,0.0,0.0,100,1.00,,-RA,1.56,VWS V14.01,2013-07-01 16:24:00,
2013-07-01 12:29:00,72.4,72.4,30.03,ENE,73,0.0,0.0,100,1.02,,-RA,1.58,VWS V14.01,2013-07-01 16:29:00,
2013-07-01 12:34:00,72.5,72.5,30.03,ENE,73,0.0,0.0,100,0.53,,-RA,1.60,VWS V14.01,2013-07-01 16:34:00,
2013-07-01 12:39:00,72.4,72.4,30.02,ENE,73,0.0,0.0,100,0.53,,-RA,1.60,VWS V14.01,2013-07-01 16:39:00,
2013-07-01 12:40:00,72.6,72.6,30.03,ENE,73,0.0,0.0,100,0.53,,-RA,1.60,VWS V14.01,2013-07-01 16:40:00,
2013-07-01 12:45:00,72.6,72.6,30.03,ENE,73,0.0,0.0,100,0.47,,-RA,1.61,VWS V14.01,2013-07-01 16:45:00,
2013-07-01 12:50:00,72.7,72.7,30.03,ENE,73,0.0,0.0,100,0.48,,-RA,1.62,VWS V14.01,2013-07-01 16:50:00,
2013-07-01 12:55:00,72.7,72.7,30.02,ENE,73,0.0,0.0,100,0.30,,-RA,1.62,VWS V14.01,2013-07-01 16:55:00,
2013-07-01 13:00:00,72.6,72.6,30.02,ENE,73,0.0,0.0,100,0.30,,-RA,1.62,VWS V14.01,2013-07-01 17:00:00,
2013-07-01 13:05:00,72.8,72.8,30.03,ENE,73,0.0,0.0,100,0.11,,-RA,1.63,VWS V14.01,2013-07-01 17:05:00,
2013-07-01 13:11:00,73.0,73.0,30.03,ENE,73,0.0,0.0,100,0.13,,-RA,1.65,VWS V14.01,2013-07-01 17:11:00,
2013-07-01 13:16:00,73.0,73.0,30.03,ENE,73,0.0,0.0,100,0.12,,-RA,1.67,VWS V14.01,2013-07-01 17:16:00,
2013-07-01 13:21:00,73.0,73.0,30.02,ENE,73,0.0,0.0,100,0.13,,-RA,1.68,VWS V14.01,2013-07-01 17:21:00,
2013-07-01 13:26:00,73.2,73.2,30.02,ENE,73,0.0,0.0,100,0.13,,-RA,1.69,VWS V14.01,2013-07-01 17:26:00,
2013-07-01 13:31:00,73.2,73.2,30.03,ENE,73,0.0,0.0,100,0.13,,-RA,1.69,VWS V14.01,2013-07-01 17:31:00,
2013-07-01 13:36:00,73.3,73.3,30.03,ENE,73,0.0,0.0,100,0.11,,-RA,1.70,VWS V14.01,2013-07-01 17:36:00,
2013-07-01 13:41:00,73.1,73.1,30.02,ENE,73,0.0,0.0,100,0.12,,-RA,1.71,VWS V14.01,2013-07-01 17:41:00,
2013-07-01 13:46:00,73.0,73.0,30.02,ENE,73,0.0,0.0,100,0.11,,-RA,1.71,VWS V14.01,2013-07-01 17:46:00,
2013-07-01 13:51:00,73.1,73.1,30.03,ENE,73,0.0,0.0,100,0.11,,-RA,1.71,VWS V14.01,2013-07-01 17:51:00,
2013-07-01 13:56:00,73.1,73.1,30.03,ENE,73,0.0,0.0,100,0.10,,-RA,1.72,VWS V14.01,2013-07-01 17:56:00,
2013-07-01 14:01:00,73.3,73.3,30.04,ENE,73,0.0,0.0,100,0.09,,-RA,1.72,VWS V14.01,2013-07-01 18:01:00,
2013-07-01 14:06:00,73.5,73.5,30.03,ENE,73,0.0,0.0,100,0.10,,-RA,1.73,VWS V14.01,2013-07-01 18:06:00,
2013-07-01 14:11:00,73.4,73.4,30.03,ENE,73,0.0,0.0,100,0.08,,-RA,1.73,VWS V14.01,2013-07-01 18:11:00,
2013-07-01 14:16:00,73.4,73.4,30.03,ENE,73,0.0,0.0,100,0.08,,-RA,1.73,VWS V14.01,2013-07-01 18:16:00,
2013-07-01 14:21:00,73.6,73.6,30.04,ENE,73,0.0,0.0,100,0.05,,-RA,1.73,VWS V14.01,2013-07-01 18:21:00,
2013-07-01 14:27:00,73.5,73.5,30.03,ENE,73,0.0,0.0,100,0.05,,-RA,1.73,VWS V14.01,2013-07-01 18:27:00,
2013-07-01 14:32:00,73.2,73.2,30.02,ENE,73,0.0,0.0,100,0.04,,-RA,1.73,VWS V14.01,2013-07-01 18:32:00,
2013-07-01 14:37:00,73.3,73.3,30.03,ENE,73,0.0,0.0,100,0.04,,-RA,1.73,VWS V14.01,2013-07-01 18:37:00,
2013-07-01 14:42:00,73.3,73.3,30.03,ENE,73,0.0,0.0,100,0.02,,-RA,1.73,VWS V14.01,2013-07-01 18:42:00,
2013-07-01 14:47:00,73.3,73.3,30.04,ENE,73,0.0,0.0,100,0.02,,-RA,1.73,VWS V14.01,2013-07-01 18:47:00,
2013-07-01 14:52:00,73.1,73.1,30.03,ENE,73,0.0,0.0,100,0.02,,-RA,1.73,VWS V14.01,2013-07-01 18:52:00,
2013-07-01 14:57:00,73.2,73.2,30.03,ENE,73,0.0,0.0,100,0.02,,-RA,1.73,VWS V14.01,2013-07-01 18:57:00,
2013-07-01 15:02:00,73.0,73.0,30.03,ENE,73,0.0,0.0,100,0.01,,-RA,1.73,VWS V14.01,2013-07-01 19:02:00,
2013-07-01 15:07:00,73.2,73.2,30.04,ENE,73,0.0,0.0,100,0.01,,-RA,1.73,VWS V14.01,2013-07-01 19:07:00,
2013-07-01 15:12:00,73.3,73.3,30.04,ENE,73,0.0,0.0,100,0.01,,-RA,1.74,VWS V14.01,2013-07-01 19:12:00,
2013-07-01 15:17:00,73.3,73.3,30.04,ENE,73,0.0,0.0,100,0.01,,-RA,1.74,VWS V14.01,2013-07-01 19:17:00,
2013-07-01 15:22:00,73.4,73.4,30.03,ENE,73,0.0,0.0,100,0.01,,-RA,1.74,VWS V14.01,2013-07-01 19:22:00,
2013-07-01 15:27:00,73.4,73.4,30.03,ENE,73,0.0,0.0,100,0.01,,-RA,1.74,VWS V14.01,2013-07-01 19:27:00,
2013-07-01 15:32:00,73.6,73.6,30.03,ENE,73,0.0,0.0,100,0.01,,-RA,1.74,VWS V14.01,2013-07-01 19:32:00,
2013-07-01 15:38:00,73.6,73.6,30.04,ENE,73,0.0,0.0,100,0.01,,-RA,1.74,VWS V14.01,2013-07-01 19:38:00,
2013-07-01 15:43:00,73.6,73.6,30.03,ENE,73,0.0,0.0,100,0.01,,-RA,1.74,VWS V14.01,2013-07-01 19:43:00,
2013-07-01 15:48:00,73.4,73.4,30.03,ENE,73,0.0,0.0,100,0.01,,-RA,1.74,VWS V14.01,2013-07-01 19:48:00,
2013-07-01 15:53:00,73.6,73.6,30.03,ENE,73,0.0,0.0,100,0.01,,-RA,1.74,VWS V14.01,2013-07-01 19:53:00,
2013-07-01 15:58:00,73.5,73.5,30.04,ENE,73,0.0,0.0,100,0.02,,-RA,1.75,VWS V14.01,2013-07-01 19:58:00,
2013-07-01 16:03:00,73.5,73.5,30.04,ENE,73,0.0,0.0,100,0.02,,-RA,1.75,VWS V14.01,2013-07-01 20:03:00,
2013-07-01 16:08:00,73.5,73.5,30.03,ENE,73,0.0,0.0,100,0.02,,-RA,1.75,VWS V14.01,2013-07-01 20:08:00,
2013-07-01 16:13:00,73.3,73.3,30.02,ENE,73,0.0,0.0,100,0.01,,-RA,1.75,VWS V14.01,2013-07-01 20:13:00,
2013-07-01 16:18:00,73.4,73.4,30.03,ENE,73,0.0,0.0,100,0.01,,-RA,1.75,VWS V14.01,2013-07-01 20:18:00,
2013-07-01 16:23:00,73.4,73.4,30.04,ENE,73,0.0,0.0,100,0.01,,-RA,1.75,VWS V14.01,2013-07-01 20:23:00,
2013-07-01 16:28:00,73.5,73.5,30.03,ENE,73,0.0,0.0,100,0.01,,-RA,1.75,VWS V14.01,2013-07-01 20:28:00,
2013-07-01 16:33:00,73.4,73.4,30.03,ENE,73,0.0,0.0,100,0.01,,-RA,1.75,VWS V14.01,2013-07-01 20:33:00,
2013-07-01 16:39:00,73.2,73.2,30.02,ENE,73,0.0,0.0,100,0.01,,-RA,1.75,VWS V14.01,2013-07-01 20:39:00,
2013-07-01 16:44:00,73.3,73.3,30.03,ENE,73,0.0,0.0,100,0.01,,-RA,1.75,VWS V14.01,2013-07-01 20:44:00,
2013-07-01 16:49:00,73.2,73.2,30.03,ENE,73,0.0,0.0,100,0.01,,-RA,1.75,VWS V14.01,2013-07-01 20:49:00,
2013-07-01 16:54:00,73.1,73.1,30.03,ENE,73,0.0,0.0,100,0.01,,-RA,1.75,VWS V14.01,2013-07-01 20:54:00,
2013-07-01 16:59:00,73.0,73.0,30.02,ENE,73,0.0,0.0,100,0.01,,-RA,1.75,VWS V14.01,2013-07-01 20:59:00,
2013-07-01 17:04:00,73.0,73.0,30.02,ENE,73,0.0,0.0,100,0.00,,-RA,1.75,VWS V14.01,2013-07-01 21:04:00,
2013-07-01 17:09:00,73.0,73.0,30.03,ENE,73,0.0,0.0,100,0.00,,-RA,1.75,VWS V14.01,2013-07-01 21:09:00,
2013-07-01 17:14:00,73.1,73.1,30.03,ENE,73,0.0,0.0,100,0.00,,-RA,1.75,VWS V14.01,2013-07-01 21:14:00,
2013-07-01 17:19:00,73.2,73.2,30.02,ENE,73,0.0,0.0,100,0.00,,-RA,1.75,VWS V14.01,2013-07-01 21:19:00,
2013-07-01 17:24:00,73.1,73.1,30.02,ENE,73,0.0,0.0,100,0.00,,-RA,1.75,VWS V14.01,2013-07-01 21:24:00,
2013-07-01 17:29:00,73.2,73.2,30.02,ENE,73,0.0,0.0,100,0.00,,-RA,1.75,VWS V14.01,2013-07-01 21:29:00,
2013-07-01 17:34:00,73.3,73.3,30.03,ENE,73,0.0,0.0,100,0.00,,-RA,1.75,VWS V14.01,2013-07-01 21:34:00,
2013-07-01 17:39:00,73.5,73.5,30.04,ENE,73,0.0,0.0,100,0.00,,-RA,1.75,VWS V14.01,2013-07-01 21:39:00,
2013-07-01 17:44:00,73.4,73.4,30.03,ENE,73,0.0,0.0,100,0.00,,-RA,1.75,VWS V14.01,2013-07-01 21:44:00,
2013-07-01 17:49:00,73.4,73.4,30.02,ENE,73,0.0,0.0,100,0.00,,-RA,1.75,VWS V14.01,2013-07-01 21:49:00,
2013-07-01 17:54:00,73.3,73.3,30.03,ENE,73,0.0,0.0,100,0.00,,-RA,1.75,VWS V14.01,2013-07-01 21:54:00,
2013-07-01 17:59:00,73.3,73.3,30.03,ENE,73,0.0,0.0,100,0.00,,-RA,1.75,VWS V14.01,2013-07-01 21:59:00,
2013-07-01 18:04:00,73.3,73.3,30.04,ENE,73,0.0,0.0,100,0.00,,-RA,1.75,VWS V14.01,2013-07-01 22:04:00,
2013-07-01 18:10:00,73.2,73.2,30.04,ENE,73,0.0,0.0,100,0.00,,-RA,1.75,VWS V14.01,2013-07-01 22:10:00,
2013-07-01 18:15:00,73.1,73.1,30.03,ENE,73,0.0,0.0,100,0.00,,-RA,1.75,VWS V14.01,2013-07-01 22:15:00,
2013-07-01 18:20:00,73.1,73.1,30.04,ENE,73,0.0,0.0,100,0.00,,-RA,1.75,VWS V14.01,2013-07-01 22:20:00,
2013-07-01 18:25:00,73.0,73.0,30.05,ENE,73,0.0,0.0,100,0.00,,-RA,1.75,VWS V14.01,2013-07-01 22:25:00,
2013-07-01 18:30:00,73.0,73.0,30.05,ENE,73,0.0,0.0,100,0.00,,-RA,1.75,VWS V14.01,2013-07-01 22:30:00,
2013-07-01 18:35:00,72.8,72.8,30.04,ENE,73,0.0,0.0,100,0.00,,-RA,1.75,VWS V14.01,2013-07-01 22:35:00,
2013-07-01 18:40:00,72.8,72.8,30.03,ENE,73,0.0,0.0,100,0.00,,-RA,1.75,VWS V14.01,2013-07-01 22:40:00,
2013-07-01 18:45:00,72.9,72.9,30.03,ENE,73,0.0,0.0,100,0.00,,-RA,1.75,VWS V14.01,2013-07-01 22:45:00,
2013-07-01 18:50:00,72.7,72.7,30.04,ENE,73,0.0,0.0,100,0.00,,-RA,1.75,VWS V14.01,2013-07-01 22:50:00,
2013-07-01 18:55:00,72.6,72.6,30.04,ENE,73,0.0,0.0,100,0.00,,-RA,1.75,VWS V14.01,2013-07-01 22:55:00,
2013-07-01 19:01:00,72.6,72.6,30.04,ENE,73,0.0,0.0,100,0.00,,-RA,1.75,VWS V14.01,2013-07-01 23:01:00,
2013-07-01 19:06:00,72.4,72.4,30.04,ENE,73,0.0,0.0,100,0.00,,-RA,1.75,VWS V14.01,2013-07-01 23:06:00,
2013-07-01 19:11:00,72.4,72.4,30.05,ENE,73,0.0,0.0,100,0.01,,-RA,1.76,VWS V14.01,2013-07-01 23:11:00,
2013-07-01 19:16:00,72.4,72.4,30.05,ENE,73,0.0,0.0,100,0.01,,-RA,1.76,VWS V14.01,2013-07-01 23:16:00,
2013-07-01 19:21:00,72.4,72.4,30.05,ENE,73,0.0,0.0,100,0.01,,-RA,1.76,VWS V14.01,2013-07-01 23:21:00,
2013-07-01 19:26:00,72.4,72.4,30.06,ENE,73,0.0,0.0,100,0.01,,-RA,1.76,VWS V14.01,2013-07-01 23:26:00,
2013-07-01 19:31:00,72.4,72.4,30.06,ENE,73,0.0,0.0,100,0.01,,-RA,1.76,VWS V14.01,2013-07-01 23:31:00,
2013-07-01 19:36:00,72.3,72.3,30.05,ENE,73,0.0,0.0,100,0.01,,-RA,1.76,VWS V14.01,2013-07-01 23:36:00,
2013-07-01 19:41:00,72.2,72.2,30.05,ENE,73,0.0,0.0,100,0.01,,-RA,1.76,VWS V14.01,2013-07-01 23:41:00,
2013-07-01 19:47:00,72.3,72.3,30.06,ENE,73,0.0,0.0,100,0.01,,-RA,1.76,VWS V14.01,2013-07-01 23:47:00,
2013-07-01 19:52:00,72.3,72.3,30.07,ENE,73,0.0,0.0,100,0.01,,-RA,1.76,VWS V14.01,2013-07-01 23:52:00,
2013-07-01 19:57:00,72.2,72.2,30.06,ENE,73,0.0,0.0,100,0.01,,-RA,1.76,VWS V14.01,2013-07-01 23:57:00,
2013-07-01 20:02:00,72.2,72.2,30.07,ENE,73,0.0,0.0,100,0.01,,-RA,1.76,VWS V14.01,2013-07-02 00:02:00,
2013-07-01 20:07:00,72.1,72.1,30.07,ENE,73,0.0,0.0,100,0.01,,-RA,1.76,VWS V14.01,2013-07-02 00:07:00,
2013-07-01 20:12:00,72.0,72.0,30.08,ENE,73,0.0,0.0,100,0.00,,-RA,1.76,VWS V14.01,2013-07-02 00:12:00,
2013-07-01 20:17:00,71.9,71.9,30.08,ENE,73,0.0,0.0,100,0.00,,-RA,1.76,VWS V14.01,2013-07-02 00:17:00,
2013-07-01 20:22:00,71.8,71.8,30.07,ENE,73,0.0,0.0,100,0.00,,-RA,1.76,VWS V14.01,2013-07-02 00:22:00,
2013-07-01 20:27:00,71.7,71.7,30.07,ENE,73,0.0,0.0,100,0.00,,-RA,1.76,VWS V14.01,2013-07-02 00:27:00,
2013-07-01 20:32:00,71.7,71.7,30.08,ENE,73,0.0,0.0,100,0.00,,-RA,1.76,VWS V14.01,2013-07-02 00:32:00,
2013-07-01 20:37:00,71.8,71.8,30.08,ENE,73,0.0,0.0,100,0.00,,-RA,1.76,VWS V14.01,2013-07-02 00:37:00,
2013-07-01 20:43:00,71.6,71.6,30.08,ENE,73,0.0,0.0,100,0.00,,-RA,1.76,VWS V14.01,2013-07-02 00:43:00,
2013-07-01 20:48:00,71.5,71.5,30.08,ENE,73,0.0,0.0,100,0.00,,-RA,1.76,VWS V14.01,2013-07-02 00:48:00,
2013-07-01 20:53:00,71.5,71.5,30.08,ENE,73,0.0,0.0,100,0.00,,-RA,1.76,VWS V14.01,2013-07-02 00:53:00,
2013-07-01 20:58:00,71.5,71.5,30.09,ENE,73,0.0,0.0,100,0.00,,-RA,1.76,VWS V14.01,2013-07-02 00:58:00,
2013-07-01 21:03:00,71.6,71.6,30.08,ENE,73,0.0,0.0,100,0.00,,-RA,1.76,VWS V14.01,2013-07-02 01:03:00,
2013-07-01 21:08:00,71.5,71.5,30.08,ENE,73,0.0,0.0,100,0.00,,-RA,1.76,VWS V14.01,2013-07-02 01:08:00,
2013-07-01 21:13:00,71.4,71.4,30.08,ENE,73,0.0,0.0,100,0.00,,-RA,1.76,VWS V14.01,2013-07-02 01:13:00,
2013-07-01 21:18:00,71.4,71.4,30.08,ENE,73,0.0,0.0,100,0.00,,-RA,1.76,VWS V14.01,2013-07-02 01:18:00,
2013-07-01 21:23:00,71.5,71.5,30.09,ENE,73,0.0,0.0,100,0.00,,-RA,1.76,VWS V14.01,2013-07-02 01:23:00,
2013-07-01 21:28:00,71.5,71.5,30.09,ENE,73,0.0,0.0,100,0.00,,-RA,1.76,VWS V14.01,2013-07-02 01:28:00,
2013-07-01 21:34:00,71.5,71.5,30.09,ENE,73,0.0,0.0,100,0.00,,-RA,1.76,VWS V14.01,2013-07-02 01:34:00,
2013-07-01 21:39:00,71.5,71.5,30.08,ENE,73,0.0,0.0,100,0.00,,-RA,1.76,VWS V14.01,2013-07-02 01:39:00,
2013-07-01 21:44:00,71.5,71.5,30.08,ENE,73,0.0,0.0,100,0.00,,-RA,1.76,VWS V14.01,2013-07-02 01:44:00,
2013-07-01 21:49:00,71.5,71.5,30.09,ENE,73,0.0,0.0,100,0.00,,-RA,1.76,VWS V14.01,2013-07-02 01:49:00,
2013-07-01 21:50:00,71.5,71.5,30.09,ENE,73,0.0,0.0,100,0.00,,-RA,1.76,VWS V14.01,2013-07-02 01:50:00,
2013-07-01 21:55:00,71.5,71.5,30.08,ENE,73,0.0,0.0,100,0.00,,-RA,1.76,VWS V14.01,2013-07-02 01:55:00,
2013-07-01 22:00:00,71.5,71.5,30.09,ENE,73,0.0,0.0,100,0.00,,-RA,1.76,VWS V14.01,2013-07-02 02:00:00,
2013-07-01 22:06:00,71.5,71.5,30.09,ENE,73,0.0,0.0,100,0.00,,OVC008,1.76,VWS V14.01,2013-07-02 02:06:00,
2013-07-01 22:11:00,71.6,71.6,30.10,ENE,73,0.0,0.0,100,0.00,,OVC008,1.76,VWS V14.01,2013-07-02 02:11:00,
2013-07-01 22:16:00,71.5,71.5,30.09,ENE,73,0.0,0.0,100,0.00,,OVC008,1.76,VWS V14.01,2013-07-02 02:16:00,
2013-07-01 22:21:00,71.5,71.5,30.09,ENE,73,0.0,0.0,100,0.00,,OVC008,1.76,VWS V14.01,2013-07-02 02:21:00,
2013-07-01 22:26:00,71.5,71.5,30.10,ENE,73,0.0,0.0,100,0.00,,OVC008,1.76,VWS V14.01,2013-07-02 02:26:00,
2013-07-01 22:31:00,71.6,71.6,30.10,ENE,73,0.0,0.0,100,0.00,,OVC008,1.76,VWS V14.01,2013-07-02 02:31:00,
2013-07-01 22:36:00,71.6,71.6,30.10,ENE,73,0.0,0.0,100,0.00,,OVC008,1.76,VWS V14.01,2013-07-02 02:36:00,
2013-07-01 22:41:00,71.6,71.6,30.09,ENE,73,0.0,0.0,100,0.00,,OVC008,1.76,VWS V14.01,2013-07-02 02:41:00,
2013-07-01 22:46:00,71.6,71.6,30.09,ENE,73,0.0,0.0,100,0.00,,OVC008,1.76,VWS V14.01,2013-07-02 02:46:00,
2013-07-01 22:51:00,71.7,71.7,30.10,ENE,73,0.0,0.0,100,0.00,,OVC008,1.76,VWS V14.01,2013-07-02 02:51:00,
2013-07-01 22:56:00,71.7,71.7,30.10,ENE,73,0.0,0.0,100,0.00,,OVC008,1.76,VWS V14.01,2013-07-02 02:56:00,
2013-07-01 23:01:00,71.7,71.7,30.10,ENE,73,0.0,0.0,100,0.00,,OVC008,1.76,VWS V14.01,2013-07-02 03:01:00,
2013-07-01 23:06:00,71.6,71.6,30.09,ENE,73,0.0,0.0,100,0.00,,OVC008,1.76,VWS V14.01,2013-07-02 03:06:00,
2013-07-01 23:12:00,71.6,71.6,30.10,ENE,73,0.0,0.0,100,0.00,,OVC008,1.76,VWS V14.01,2013-07-02 03:12:00,
2013-07-01 23:17:00,71.7,71.7,30.10,ENE,73,0.0,0.0,100,0.00,,OVC008,1.76,VWS V14.01,2013-07-02 03:17:00,
2013-07-01 23:22:00,71.7,71.7,30.10,ENE,73,0.0,0.0,100,0.00,,OVC008,1.76,VWS V14.01,2013-07-02 03:22:00,
2013-07-01 23:27:00,71.7,71.7,30.09,ENE,73,0.0,0.0,100,0.00,,OVC008,1.76,VWS V14.01,2013-07-02 03:27:00,
2013-07-01 23:32:00,71.6,71.6,30.10,ENE,73,0.0,0.0,100,0.00,,OVC008,1.76,VWS V14.01,2013-07-02 03:32:00,
2013-07-01 23:37:00,71.6,71.6,30.10,ENE,73,0.0,0.0,100,0.00,,OVC008,1.76,VWS V14.01,2013-07-02 03:37:00,
2013-07-01 23:42:00,71.7,71.7,30.11,ENE,73,0.0,0.0,100,0.00,,OVC008,1.76,VWS V14.01,2013-07-02 03:42:00,
2013-07-01 23:47:00,71.8,71.8,30.10,ENE,73,0.0,0.0,100,0.00,,OVC008,1.76,VWS V14.01,2013-07-02 03:47:00,
2013-07-01 23:52:00,71.7,71.7,30.10,ENE,73,0.0,0.0,100,0.00,,OVC008,1.76,VWS V14.01,2013-07-02 03:52:00,
2013-07-01 23:57:00,71.6,71.6,30.10,ENE,73,0.0,0.0,100,0.00,,OVC008,1.76,VWS V14.01,2013-07-02 03:57:00,